Time;durP1;ratioP1;P1;durP2;ratioP2;P2;SDS_P1;SDS_P2;PMS_P1;PMS_P2;Temp;Humidity;BMP_temperature;BMP_pressure;BME280_temperature;BME280_humidity;BME280_pressure;Samples;Min_cycle;Max_cycle;Signal;HPM_P1;HPM_P2
2023/01/12 00:02:17;;;;;;;2.58;1.13;;;17.20;56.40;;;;;;5126553;27;46412;-75
2023/01/12 00:04:44;;;;;;;2.00;0.90;;;17.20;56.40;;;;;;5119681;27;45165;-75
2023/01/12 00:07:12;;;;;;;1.52;0.95;;;17.20;56.40;;;;;;5127412;27;45355;-75
2023/01/12 00:09:40;;;;;;;2.70;0.80;;;17.20;56.40;;;;;;5118469;27;45387;-75
2023/01/12 00:12:08;;;;;;;2.65;0.70;;;17.20;56.40;;;;;;5115080;27;47864;-75
2023/01/12 00:14:35;;;;;;;1.83;0.82;;;17.20;56.50;;;;;;5105295;27;45329;-75
2023/01/12 00:17:02;;;;;;;1.85;1.02;;;17.20;56.40;;;;;;5107035;27;45299;-75
2023/01/12 00:19:28;;;;;;;1.00;0.90;;;17.20;56.50;;;;;;5115393;27;45458;-75
2023/01/12 00:22:01;;;;;;;2.72;0.95;;;17.20;56.50;;;;;;5105629;27;45405;-75
2023/01/12 00:24:29;;;;;;;0.98;0.80;;;17.10;56.40;;;;;;5106152;27;45327;-76
2023/01/12 00:26:57;;;;;;;1.23;0.82;;;17.10;56.40;;;;;;5106514;27;45327;-75
2023/01/12 00:29:24;;;;;;;2.50;0.98;;;17.10;56.40;;;;;;5104281;27;45421;-75
2023/01/12 00:31:52;;;;;;;1.52;0.75;;;17.10;56.50;;;;;;5120628;27;45515;-75
2023/01/12 00:34:19;;;;;;;1.30;0.90;;;17.10;56.50;;;;;;5127246;27;45366;-75
2023/01/12 00:36:46;;;;;;;1.00;0.80;;;17.10;56.50;;;;;;5127255;27;45440;-76
2023/01/12 00:39:13;;;;;;;1.23;0.60;;;17.10;56.50;;;;;;5123027;27;45312;-75
2023/01/12 00:47:10;;;;;;;1.08;1.02;;;17.10;56.50;;;;;;5124565;27;45169;-74
2023/01/12 00:49:37;;;;;;;0.77;0.77;;;17.00;56.50;;;;;;5123522;27;45310;-74
2023/01/12 00:52:04;;;;;;;0.80;0.73;;;17.00;56.60;;;;;;5126639;27;45492;-75
2023/01/12 00:54:31;;;;;;;1.42;0.70;;;17.00;56.60;;;;;;5126891;27;45316;-74
2023/01/12 00:56:58;;;;;;;0.93;0.77;;;17.00;56.60;;;;;;5126871;27;45374;-74
2023/01/12 00:59:26;;;;;;;1.67;0.70;;;17.00;56.60;;;;;;5114351;27;45410;-74
2023/01/12 01:01:53;;;;;;;2.20;1.33;;;17.00;56.60;;;;;;5113450;27;45498;-74
2023/01/12 01:04:20;;;;;;;1.38;0.70;;;17.00;56.60;;;;;;5106161;27;45313;-74
2023/01/12 01:06:47;;;;;;;1.48;1.02;;;17.00;56.60;;;;;;5122530;27;45500;-74
2023/01/12 01:09:14;;;;;;;0.70;0.70;;;16.90;56.60;;;;;;5121420;27;45330;-74
2023/01/12 01:11:40;;;;;;;2.95;1.10;;;16.90;56.70;;;;;;5124908;27;45702;-74
2023/01/12 01:14:07;;;;;;;0.75;0.60;;;16.90;56.60;;;;;;5113665;27;45339;-74
2023/01/12 01:16:36;;;;;;;1.88;0.80;;;16.90;56.60;;;;;;5130733;27;45328;-74
2023/01/12 01:19:04;;;;;;;1.05;0.82;;;16.90;56.60;;;;;;5118887;27;45447;-75
2023/01/12 01:21:31;;;;;;;2.60;0.98;;;16.90;56.70;;;;;;5130416;27;46565;-75
2023/01/12 01:23:58;;;;;;;2.15;1.02;;;16.90;56.60;;;;;;5129788;27;45418;-75
2023/01/12 01:26:25;;;;;;;1.48;0.80;;;16.90;56.60;;;;;;5130589;27;45334;-75
2023/01/12 01:28:52;;;;;;;2.60;1.00;;;16.90;56.70;;;;;;5122058;27;45478;-75
2023/01/12 01:31:20;;;;;;;1.48;0.93;;;16.90;56.70;;;;;;5109361;27;45363;-74
2023/01/12 01:33:49;;;;;;;1.88;0.77;;;16.90;56.70;;;;;;5128346;27;45346;-74
2023/01/12 01:36:16;;;;;;;1.70;0.85;;;16.80;56.60;;;;;;5130257;27;45299;-74
2023/01/12 01:38:43;;;;;;;1.30;0.70;;;16.80;56.70;;;;;;5125358;27;45501;-74
2023/01/12 01:41:15;;;;;;;0.90;0.80;;;16.80;56.70;;;;;;5129654;27;46395;-74
2023/01/12 01:43:54;;;;;;;2.25;0.88;;;16.80;56.70;;;;;;5129655;27;45618;-75
2023/01/12 01:46:30;;;;;;;1.50;0.85;;;16.80;56.70;;;;;;5130061;27;45239;-75
2023/01/12 01:48:58;;;;;;;1.20;0.80;;;16.80;56.60;;;;;;5122093;27;45199;-75
2023/01/12 01:51:25;;;;;;;1.88;1.08;;;16.80;56.60;;;;;;5129657;27;45469;-74
2023/01/12 01:53:51;;;;;;;1.13;1.00;;;16.80;56.70;;;;;;5129359;27;45339;-75
2023/01/12 01:56:20;;;;;;;1.88;0.85;;;16.80;56.70;;;;;;5129912;27;45358;-74
2023/01/12 01:58:49;;;;;;;2.25;0.85;;;16.70;56.60;;;;;;5123648;27;45728;-74
2023/01/12 02:01:16;;;;;;;0.85;0.68;;;16.80;56.70;;;;;;5129667;27;45473;-74
2023/01/12 02:03:43;;;;;;;1.80;0.70;;;16.70;56.60;;;;;;5123575;27;45303;-75
2023/01/12 02:06:11;;;;;;;1.88;0.90;;;16.70;56.60;;;;;;5109020;27;45273;-75
2023/01/12 02:08:41;;;;;;;1.92;0.80;;;16.70;56.60;;;;;;5117138;27;45184;-75
2023/01/12 02:16:19;;;;;;;2.58;0.85;;;16.70;56.60;;;;;;5129338;27;45391;-75
2023/01/12 02:16:40;;;;;;;1.92;0.85;;;16.70;56.70;;;;;;5105770;27;45389;-75
2023/01/12 02:19:17;;;;;;;1.42;0.80;;;16.70;56.60;;;;;;5112499;27;45329;-75
2023/01/12 02:25:16;;;;;;;2.28;0.70;;;16.70;56.70;;;;;;5123780;27;45282;-74
2023/01/12 02:28:02;;;;;;;1.75;0.90;;;16.70;56.60;;;;;;5081270;28;45428;-75
2023/01/12 02:31:08;;;;;;;1.85;0.90;;;16.70;56.60;;;;;;5098253;27;45411;-73
2023/01/12 02:33:40;;;;;;;2.15;1.25;;;16.70;56.70;;;;;;5104065;27;45184;-74
2023/01/12 02:36:09;;;;;;;2.13;0.80;;;16.70;56.70;;;;;;5103143;27;45569;-74
2023/01/12 02:38:37;;;;;;;0.75;0.65;;;16.70;56.60;;;;;;5100759;27;45616;-74
2023/01/12 02:41:09;;;;;;;2.03;0.80;;;16.70;56.70;;;;;;5083213;27;45218;-74
2023/01/12 02:43:35;;;;;;;1.85;0.70;;;16.70;56.70;;;;;;5083295;28;45368;-74
2023/01/12 02:46:10;;;;;;;2.13;0.82;;;16.70;56.70;;;;;;5096652;27;46477;-74
2023/01/12 02:48:38;;;;;;;2.30;0.82;;;16.70;56.60;;;;;;5107721;27;45321;-74
2023/01/12 02:51:07;;;;;;;2.50;0.88;;;16.70;56.60;;;;;;5107515;27;45410;-74
2023/01/12 02:53:37;;;;;;;1.85;0.77;;;16.70;56.60;;;;;;5124258;27;45351;-74
2023/01/12 02:56:05;;;;;;;2.47;0.80;;;16.70;56.60;;;;;;5120871;27;46415;-75
2023/01/12 02:58:32;;;;;;;2.20;0.82;;;16.70;56.60;;;;;;5117962;27;45216;-74
2023/01/12 03:00:59;;;;;;;1.35;0.70;;;16.60;56.50;;;;;;5103152;27;45366;-73
2023/01/12 03:03:26;;;;;;;1.02;0.63;;;16.70;56.60;;;;;;5103067;27;45649;-73
2023/01/12 03:05:56;;;;;;;2.05;0.90;;;16.70;56.60;;;;;;5100699;27;45012;-74
2023/01/12 03:08:24;;;;;;;2.58;0.73;;;16.70;56.60;;;;;;5103168;27;45356;-74
2023/01/12 03:10:57;;;;;;;2.17;1.00;;;16.70;56.60;;;;;;5103397;27;45232;-74
2023/01/12 03:13:23;;;;;;;2.05;0.70;;;16.70;56.50;;;;;;5103555;27;45329;-74
2023/01/12 03:15:52;;;;;;;3.30;0.90;;;16.70;56.60;;;;;;5103101;27;45427;-74
2023/01/12 03:18:21;;;;;;;2.25;0.98;;;16.60;56.50;;;;;;5103230;27;45173;-74
2023/01/12 03:20:50;;;;;;;2.25;0.80;;;16.60;56.50;;;;;;5103443;27;45221;-74
2023/01/12 03:23:19;;;;;;;2.28;0.60;;;16.60;56.50;;;;;;5102979;27;45470;-74
2023/01/12 03:25:46;;;;;;;2.28;0.77;;;16.60;56.50;;;;;;5102982;27;46391;-74
2023/01/12 03:28:14;;;;;;;2.05;0.90;;;16.60;56.40;;;;;;5100435;27;45391;-75
2023/01/12 03:30:42;;;;;;;1.75;0.70;;;16.60;56.50;;;;;;5103035;27;45285;-73
2023/01/12 03:33:09;;;;;;;4.57;0.95;;;16.60;56.50;;;;;;5103219;27;45165;-74
2023/01/12 03:35:39;;;;;;;0.75;0.63;;;16.60;56.50;;;;;;5091418;27;46593;-74
2023/01/12 03:38:08;;;;;;;1.35;0.98;;;16.60;56.50;;;;;;5089381;28;45388;-74
2023/01/12 03:40:37;;;;;;;2.20;0.90;;;16.60;56.50;;;;;;5089322;28;45231;-73
2023/01/12 03:43:06;;;;;;;1.85;0.90;;;16.60;56.40;;;;;;5089366;27;45337;-74
2023/01/12 03:45:35;;;;;;;2.55;0.90;;;16.60;56.50;;;;;;5089294;28;45313;-74
2023/01/12 03:48:09;;;;;;;2.63;0.70;;;16.60;56.50;;;;;;5089206;28;45449;-73
2023/01/12 03:50:39;;;;;;;2.33;0.90;;;16.60;56.50;;;;;;5089069;28;45122;-74
2023/01/12 03:53:06;;;;;;;1.10;0.80;;;16.60;56.50;;;;;;5089289;27;45322;-73
2023/01/12 03:55:33;;;;;;;1.52;0.80;;;16.60;56.50;;;;;;5087959;28;46687;-74
2023/01/12 03:58:01;;;;;;;0.93;0.60;;;16.60;56.40;;;;;;5088719;28;45201;-74
2023/01/12 04:00:28;;;;;;;1.55;0.88;;;16.60;55.90;;;;;;5089131;28;45390;-74
2023/01/12 04:03:03;;;;;;;3.95;1.13;;;16.60;56.50;;;;;;5089208;28;45369;-74
2023/01/12 04:05:29;;;;;;;1.95;0.77;;;16.60;56.40;;;;;;5088967;27;45706;-74
2023/01/12 04:07:56;;;;;;;2.50;0.70;;;16.60;56.40;;;;;;5089039;28;45331;-74
2023/01/12 04:10:23;;;;;;;2.45;1.05;;;16.60;56.50;;;;;;5089017;28;45130;-74
2023/01/12 04:12:49;;;;;;;1.25;0.70;;;16.60;56.50;;;;;;5089256;28;45179;-74
2023/01/12 04:15:17;;;;;;;2.05;0.80;;;16.60;56.50;;;;;;5088711;28;45694;-74
2023/01/12 04:17:44;;;;;;;2.25;0.98;;;16.60;56.40;;;;;;5088906;28;45249;-74
2023/01/12 04:20:12;;;;;;;2.00;0.77;;;16.60;56.40;;;;;;5088974;28;45372;-73
2023/01/12 04:22:43;;;;;;;1.80;0.82;;;16.60;56.40;;;;;;5089127;28;45222;-74
2023/01/12 04:25:10;;;;;;;1.55;0.80;;;16.60;56.40;;;;;;5088605;27;46687;-74
2023/01/12 04:27:37;;;;;;;1.88;0.93;;;16.60;56.40;;;;;;5088690;28;45130;-74
2023/01/12 04:30:05;;;;;;;1.63;0.77;;;16.60;56.40;;;;;;5088828;28;45210;-74
2023/01/12 04:32:33;;;;;;;1.23;0.80;;;16.60;57.00;;;;;;5088961;27;45477;-74
2023/01/12 04:35:00;;;;;;;1.88;0.77;;;16.60;56.40;;;;;;5088492;28;46653;-74
2023/01/12 04:37:27;;;;;;;1.30;0.73;;;16.60;56.40;;;;;;5088417;28;45392;-74
2023/01/12 04:39:54;;;;;;;2.80;0.90;;;16.60;56.40;;;;;;5088519;28;45346;-74
2023/01/12 04:45:06;;;;;;;1.88;0.90;;;16.60;56.40;;;;;;5085539;28;45180;-74
2023/01/12 04:47:35;;;;;;;2.08;1.02;;;16.50;56.30;;;;;;5086740;27;45385;-72
2023/01/12 04:50:01;;;;;;;1.05;0.85;;;16.50;56.40;;;;;;5087753;28;45252;-73
2023/01/12 04:52:28;;;;;;;0.50;0.50;;;16.50;56.40;;;;;;5088349;28;45457;-74
2023/01/12 04:54:55;;;;;;;1.90;0.80;;;16.50;56.40;;;;;;5088051;28;46658;-74
2023/01/12 04:57:22;;;;;;;1.92;0.80;;;16.50;56.30;;;;;;5088272;28;45462;-73
2023/01/12 04:59:49;;;;;;;4.07;0.70;;;16.50;56.40;;;;;;5088221;28;45231;-73
2023/01/12 05:02:15;;;;;;;1.65;1.02;;;16.50;56.40;;;;;;5088435;28;45516;-73
2023/01/12 05:04:45;;;;;;;1.60;0.80;;;16.50;56.40;;;;;;5087883;27;46359;-74
2023/01/12 05:07:12;;;;;;;1.88;0.70;;;16.50;56.90;;;;;;5087779;28;45345;-74
2023/01/12 05:12:23;;;;;;;1.02;0.75;;;16.50;56.40;;;;;;5085611;28;45324;-73
2023/01/12 05:14:50;;;;;;;1.23;0.68;;;16.50;56.50;;;;;;5087971;28;45432;-73
2023/01/12 05:17:17;;;;;;;1.52;0.77;;;16.50;56.50;;;;;;5087974;28;45250;-74
2023/01/12 05:19:47;;;;;;;1.95;0.80;;;16.50;56.40;;;;;;5088098;28;45170;-73
2023/01/12 05:22:13;;;;;;;1.73;0.68;;;16.50;56.50;;;;;;5087974;28;45287;-74
2023/01/12 05:24:40;;;;;;;1.23;0.68;;;16.50;56.50;;;;;;5087538;28;45391;-73
2023/01/12 05:27:07;;;;;;;1.23;0.60;;;16.50;56.40;;;;;;5087605;28;45184;-73
2023/01/12 05:29:34;;;;;;;1.70;0.88;;;16.50;56.40;;;;;;5087811;28;45303;-73
2023/01/12 05:32:01;;;;;;;1.15;0.85;;;16.50;56.40;;;;;;5088108;28;45434;-73
2023/01/12 05:34:28;;;;;;;0.93;0.88;;;16.50;56.40;;;;;;5087358;28;46308;-73
2023/01/12 05:36:56;;;;;;;3.22;0.80;;;16.50;56.40;;;;;;5086720;28;45378;-73
2023/01/12 05:39:23;;;;;;;1.20;0.70;;;16.50;56.40;;;;;;5087331;27;45278;-74
2023/01/12 05:44:30;;;;;;;0.80;0.70;;;16.50;56.50;;;;;;5052612;27;46079;-73
2023/01/12 05:46:57;;;;;;;1.38;0.70;;;16.50;56.40;;;;;;5087223;28;45261;-73
2023/01/12 05:49:24;;;;;;;1.20;0.75;;;16.40;56.30;;;;;;5087418;28;45230;-73
2023/01/12 05:51:51;;;;;;;0.50;0.50;;;16.40;56.30;;;;;;5087470;28;45549;-73
2023/01/12 05:54:19;;;;;;;3.90;0.80;;;16.40;56.40;;;;;;5087105;28;45461;-74
2023/01/12 05:56:46;;;;;;;1.55;0.77;;;16.40;56.40;;;;;;5087219;28;45368;-73
2023/01/12 05:59:14;;;;;;;0.63;0.52;;;16.40;56.40;;;;;;5087022;28;45254;-73
2023/01/12 06:01:41;;;;;;;1.80;0.63;;;16.40;56.30;;;;;;5087319;28;45215;-73
2023/01/12 06:04:08;;;;;;;2.95;0.85;;;16.40;56.30;;;;;;5086935;28;46365;-73
2023/01/12 06:06:34;;;;;;;2.15;0.60;;;16.40;56.40;;;;;;5087027;28;45268;-73
2023/01/12 06:09:01;;;;;;;2.35;0.73;;;16.40;56.30;;;;;;5087504;28;45289;-73
2023/01/12 06:14:15;;;;;;;3.30;0.88;;;16.40;56.30;;;;;;5084528;28;45214;-73
2023/01/12 06:16:42;;;;;;;0.82;0.50;;;16.40;56.30;;;;;;5087173;28;45150;-74
2023/01/12 06:19:09;;;;;;;1.30;0.70;;;16.40;56.30;;;;;;5087086;28;45283;-74
2023/01/12 06:21:36;;;;;;;2.30;0.80;;;16.40;56.30;;;;;;5084731;28;45236;-74
2023/01/12 06:24:03;;;;;;;1.23;0.52;;;16.40;56.30;;;;;;5086506;28;46661;-74
2023/01/12 06:26:31;;;;;;;1.40;0.93;;;16.40;56.40;;;;;;5086991;28;45136;-73
2023/01/12 06:28:58;;;;;;;2.40;0.82;;;16.40;56.30;;;;;;5086935;28;45370;-73
2023/01/12 06:31:25;;;;;;;2.17;1.10;;;16.40;56.30;;;;;;5086998;28;45525;-74
2023/01/12 06:33:52;;;;;;;1.63;0.65;;;16.40;56.40;;;;;;5086765;27;45387;-74
2023/01/12 06:36:19;;;;;;;1.77;0.80;;;16.40;56.30;;;;;;5086595;28;45209;-74
2023/01/12 06:38:46;;;;;;;1.30;0.85;;;16.40;56.30;;;;;;5086780;28;45276;-74
2023/01/12 06:42:27;;;;;;;2.53;0.68;;;16.40;56.30;;;;;;5087244;28;45296;-74
2023/01/12 06:44:01;;;;;;;1.20;0.60;;;16.40;56.80;;;;;;5086289;28;45325;-74
2023/01/12 06:46:28;;;;;;;1.00;0.70;;;16.40;56.30;;;;;;5086634;27;45257;-74
2023/01/12 06:48:55;;;;;;;2.63;1.10;;;16.40;56.20;;;;;;5086858;28;45186;-74
2023/01/12 06:51:22;;;;;;;1.35;0.90;;;16.40;56.30;;;;;;5086805;28;45168;-74
2023/01/12 06:53:49;;;;;;;1.50;0.70;;;16.40;56.30;;;;;;5086419;28;46665;-74
2023/01/12 06:56:16;;;;;;;1.30;0.77;;;16.40;56.20;;;;;;5086311;28;45278;-74
2023/01/12 06:58:43;;;;;;;1.15;1.02;;;16.30;56.20;;;;;;5086898;28;45400;-74
2023/01/12 07:01:11;;;;;;;1.17;0.90;;;16.30;56.30;;;;;;5084016;28;45272;-74
2023/01/12 07:03:38;;;;;;;1.85;0.70;;;16.30;56.10;;;;;;5086412;28;46341;-74
2023/01/12 07:06:05;;;;;;;1.13;1.00;;;16.40;56.20;;;;;;5086344;28;45322;-74
2023/01/12 07:08:32;;;;;;;1.48;1.10;;;16.30;56.30;;;;;;5086510;28;45243;-74
2023/01/12 07:11:00;;;;;;;1.40;0.93;;;16.30;56.20;;;;;;5089529;28;45274;-74
2023/01/12 07:13:27;;;;;;;3.67;1.00;;;16.30;56.30;;;;;;5089853;28;47456;-74
2023/01/12 07:15:54;;;;;;;1.77;1.00;;;16.30;56.30;;;;;;5089724;28;45226;-74
2023/01/12 07:18:22;;;;;;;2.30;1.15;;;16.30;56.30;;;;;;5087334;28;45311;-73
2023/01/12 07:20:49;;;;;;;2.35;0.90;;;16.30;56.20;;;;;;5089441;28;45443;-74
2023/01/12 07:23:16;;;;;;;2.53;1.10;;;16.30;56.30;;;;;;5089318;28;45476;-74
2023/01/12 07:25:43;;;;;;;1.20;0.95;;;16.30;56.30;;;;;;5089511;28;45276;-74
2023/01/12 07:28:10;;;;;;;1.65;1.17;;;16.30;56.30;;;;;;5089814;28;45337;-74
2023/01/12 07:30:37;;;;;;;1.63;1.23;;;16.30;56.30;;;;;;5089762;28;45470;-74
2023/01/12 07:33:06;;;;;;;1.77;1.05;;;16.30;56.20;;;;;;5089417;28;46655;-74
2023/01/12 07:35:34;;;;;;;3.35;1.20;;;16.30;56.20;;;;;;5089551;27;45191;-74
2023/01/12 07:38:01;;;;;;;2.38;1.10;;;16.30;56.20;;;;;;5089791;27;45336;-74
2023/01/12 07:40:28;;;;;;;3.17;1.00;;;16.30;56.20;;;;;;5089705;28;45427;-74
2023/01/12 07:43:01;;;;;;;1.45;0.93;;;16.30;56.20;;;;;;5089399;28;45246;-74
2023/01/12 07:45:28;;;;;;;2.03;1.20;;;16.30;56.20;;;;;;5089236;28;45273;-74
2023/01/12 07:47:55;;;;;;;2.00;1.48;;;16.30;56.10;;;;;;5089436;27;45252;-74
2023/01/12 07:50:22;;;;;;;1.33;1.20;;;16.30;56.20;;;;;;5089616;28;45395;-74
2023/01/12 07:52:50;;;;;;;2.05;1.17;;;16.30;56.20;;;;;;5089122;28;46893;-74
2023/01/12 07:55:18;;;;;;;1.63;1.40;;;16.30;56.10;;;;;;5089080;28;45240;-74
2023/01/12 07:57:53;;;;;;;1.90;1.10;;;16.30;56.20;;;;;;5089375;28;45207;-74
2023/01/12 08:00:22;;;;;;;4.30;1.33;;;16.30;56.00;;;;;;5089706;28;45168;-74
2023/01/12 08:02:48;;;;;;;1.90;1.30;;;16.30;55.90;;;;;;5087686;28;45609;-74
2023/01/12 08:05:16;;;;;;;4.70;1.30;;;16.30;56.20;;;;;;5089059;27;45233;-74
2023/01/12 08:07:42;;;;;;;1.77;1.17;;;16.30;55.90;;;;;;5089063;28;45310;-72
2023/01/12 08:10:11;;;;;;;4.20;1.42;;;16.30;56.00;;;;;;5088479;28;45178;-74
2023/01/12 08:12:38;;;;;;;3.40;1.17;;;16.30;56.10;;;;;;5088798;28;47544;-74
2023/01/12 08:15:07;;;;;;;3.97;1.67;;;16.30;56.10;;;;;;5089058;28;45302;-73
2023/01/12 08:17:34;;;;;;;2.83;1.38;;;16.30;56.00;;;;;;5089112;27;45316;-74
2023/01/12 08:20:02;;;;;;;2.38;1.65;;;16.30;56.00;;;;;;5089219;28;45180;-74
2023/01/12 08:22:31;;;;;;;1.92;1.40;;;16.30;55.90;;;;;;5088459;28;45198;-74
2023/01/12 08:25:00;;;;;;;2.55;1.48;;;16.30;56.00;;;;;;5088644;28;45294;-73
2023/01/12 08:27:29;;;;;;;4.15;1.52;;;16.30;56.00;;;;;;5088849;28;45223;-74
2023/01/12 08:29:57;;;;;;;3.25;1.42;;;16.30;56.00;;;;;;5088907;28;45326;-74
2023/01/12 08:32:24;;;;;;;3.53;1.88;;;16.30;56.00;;;;;;5088646;28;46677;-74
2023/01/12 08:34:52;;;;;;;2.30;1.80;;;16.30;56.50;;;;;;5088470;28;45267;-74
2023/01/12 08:37:20;;;;;;;2.10;1.40;;;16.30;56.00;;;;;;5088668;28;45145;-74
2023/01/12 08:39:46;;;;;;;2.55;1.65;;;16.30;56.00;;;;;;5088785;28;45427;-74
2023/01/12 08:42:13;;;;;;;3.03;1.48;;;16.30;55.90;;;;;;5088000;28;45483;-74
2023/01/12 08:44:42;;;;;;;2.78;1.65;;;16.30;55.80;;;;;;5088313;28;45184;-74
2023/01/12 08:47:15;;;;;;;5.65;1.75;;;16.30;56.00;;;;;;5088701;28;45233;-73
2023/01/12 08:49:42;;;;;;;2.78;1.70;;;16.30;55.80;;;;;;5088582;28;45527;-74
2023/01/12 08:52:09;;;;;;;2.70;1.65;;;16.30;55.90;;;;;;5088332;27;45300;-73
2023/01/12 08:54:36;;;;;;;2.85;1.60;;;16.30;55.90;;;;;;5088435;28;45306;-74
2023/01/12 08:57:03;;;;;;;3.35;1.85;;;16.30;55.90;;;;;;5087732;28;45360;-77
2023/01/12 08:59:30;;;;;;;3.60;1.80;;;16.30;55.90;;;;;;5088088;27;45335;-73
2023/01/12 09:01:58;;;;;;;2.90;1.65;;;16.30;55.80;;;;;;5087946;28;45284;-73
2023/01/12 09:04:25;;;;;;;3.38;1.70;;;16.30;55.90;;;;;;5088040;28;45203;-74
2023/01/12 09:06:52;;;;;;;5.32;1.90;;;16.40;55.90;;;;;;5088312;28;45334;-74
2023/01/12 09:09:19;;;;;;;5.13;1.92;;;16.40;55.80;;;;;;5088466;28;45378;-74
2023/01/12 09:11:46;;;;;;;4.47;1.90;;;16.40;55.90;;;;;;5087822;28;46402;-73
2023/01/12 09:14:13;;;;;;;3.55;1.80;;;16.40;55.90;;;;;;5088059;27;45154;-73
2023/01/12 09:16:40;;;;;;;2.25;1.88;;;16.40;55.90;;;;;;5087965;28;45294;-74
2023/01/12 09:19:09;;;;;;;3.75;2.10;;;16.40;55.90;;;;;;5088063;28;45424;-74
2023/01/12 09:21:37;;;;;;;4.13;1.90;;;16.40;55.90;;;;;;5087819;27;46400;-74
2023/01/12 09:24:04;;;;;;;6.30;2.10;;;16.40;55.80;;;;;;5087599;28;45410;-74
2023/01/12 09:26:32;;;;;;;5.13;1.95;;;16.40;55.80;;;;;;5088018;28;45331;-74
2023/01/12 09:28:59;;;;;;;4.50;2.25;;;16.40;55.80;;;;;;5087998;28;45398;-74
2023/01/12 09:31:26;;;;;;;4.07;1.88;;;16.40;55.80;;;;;;5087903;28;47665;-74
2023/01/12 09:33:53;;;;;;;5.10;1.90;;;16.40;55.90;;;;;;5084533;28;45154;-74
2023/01/12 09:36:24;;;;;;;2.95;1.90;;;16.40;55.80;;;;;;5088012;28;45192;-74
2023/01/12 09:38:51;;;;;;;3.78;1.90;;;16.50;55.80;;;;;;5087886;28;45139;-74
2023/01/12 09:46:57;;;;;;;2.83;1.88;;;16.50;55.80;;;;;;5087506;28;46363;-74
2023/01/12 09:47:00;;;;;;;2.88;1.60;;;16.50;55.80;;;;;;5087693;28;45211;-73
2023/01/12 09:49:28;;;;;;;3.90;1.77;;;16.50;55.70;;;;;;5087895;27;45439;-74
2023/01/12 09:51:58;;;;;;;2.28;1.52;;;16.50;55.70;;;;;;5087235;28;46981;-73
2023/01/12 09:54:25;;;;;;;4.70;1.73;;;16.50;55.70;;;;;;5087468;28;45175;-74
2023/01/12 09:56:57;;;;;;;2.83;1.88;;;16.50;55.70;;;;;;5087276;28;45293;-73
2023/01/12 09:59:30;;;;;;;2.70;1.70;;;16.50;55.70;;;;;;5086849;28;45210;-73
2023/01/12 10:01:57;;;;;;;2.60;1.90;;;16.50;55.60;;;;;;5083685;28;45172;-73
2023/01/12 10:04:24;;;;;;;4.07;2.03;;;16.50;55.70;;;;;;5087257;28;45254;-73
2023/01/12 10:06:50;;;;;;;4.85;1.92;;;16.50;55.80;;;;;;5086988;28;45453;-73
2023/01/12 10:09:19;;;;;;;3.47;2.10;;;16.50;55.80;;;;;;5087709;28;45462;-73
2023/01/12 10:11:49;;;;;;;3.10;1.90;;;16.50;55.70;;;;;;5086936;28;45459;-74
2023/01/12 10:14:47;;;;;;;2.40;1.90;;;16.50;55.70;;;;;;5087120;28;45287;-74
2023/01/12 10:17:24;;;;;;;2.83;1.63;;;16.50;55.70;;;;;;5087381;28;45324;-73
2023/01/12 10:19:53;;;;;;;4.03;2.08;;;16.50;55.70;;;;;;5087312;27;45581;-74
2023/01/12 10:22:35;;;;;;;4.07;1.80;;;16.50;55.70;;;;;;5086947;28;46400;-74
2023/01/12 10:25:13;;;;;;;2.55;1.42;;;16.50;55.70;;;;;;5086989;28;45280;-73
2023/01/12 10:27:42;;;;;;;3.85;1.92;;;16.60;55.70;;;;;;5087303;28;45369;-73
2023/01/12 10:30:12;;;;;;;4.03;1.88;;;16.60;55.70;;;;;;5087343;28;45314;-74
2023/01/12 10:32:39;;;;;;;2.90;1.80;;;16.60;56.20;;;;;;5086739;28;47226;-74
2023/01/12 10:35:06;;;;;;;3.33;1.77;;;16.50;55.60;;;;;;5086764;28;45334;-74
2023/01/12 10:37:35;;;;;;;3.25;2.47;;;16.60;55.70;;;;;;5087182;27;45316;-73
2023/01/12 10:40:05;;;;;;;3.33;1.42;;;16.60;55.70;;;;;;5086855;27;45569;-73
2023/01/12 10:45:19;;;;;;;3.92;1.80;;;16.60;55.60;;;;;;5086333;28;45454;-75
2023/01/12 10:47:46;;;;;;;4.35;2.72;;;16.60;55.50;;;;;;5091262;27;45269;-74
2023/01/12 10:50:21;;;;;;;2.20;2.00;;;16.60;55.60;;;;;;5090832;28;45462;-74
2023/01/12 10:52:49;;;;;;;6.90;1.98;;;16.60;55.60;;;;;;5089944;28;45535;-73
2023/01/12 10:55:19;;;;;;;6.47;2.13;;;16.60;55.70;;;;;;5089866;28;45407;-73
2023/01/12 10:57:46;;;;;;;4.70;2.30;;;16.60;56.10;;;;;;5090179;28;45241;-73
2023/01/12 11:00:19;;;;;;;3.17;1.98;;;16.60;56.10;;;;;;5090536;27;45169;-73
2023/01/12 11:02:46;;;;;;;5.07;2.28;;;16.60;55.90;;;;;;5090552;28;45291;-74
2023/01/12 11:05:26;;;;;;;4.10;2.40;;;16.70;56.20;;;;;;5089897;28;45197;-74
2023/01/12 11:07:53;;;;;;;4.47;2.20;;;16.70;56.30;;;;;;5090373;28;45327;-74
2023/01/12 11:10:27;;;;;;;3.90;2.05;;;16.80;56.20;;;;;;5090732;28;45308;-74
2023/01/12 11:12:55;;;;;;;2.78;1.88;;;16.80;56.00;;;;;;5090017;28;45426;-74
2023/01/12 11:15:22;;;;;;;2.05;1.88;;;16.80;56.00;;;;;;5089852;28;45216;-74
2023/01/12 11:17:56;;;;;;;2.75;2.13;;;16.80;56.10;;;;;;5090107;28;45196;-74
2023/01/12 11:20:27;;;;;;;6.15;2.20;;;16.80;56.20;;;;;;5090078;27;45209;-74
2023/01/12 11:22:56;;;;;;;5.03;2.10;;;16.80;56.10;;;;;;5089503;28;46670;-74
2023/01/12 11:25:25;;;;;;;2.95;2.20;;;16.80;56.10;;;;;;5089612;27;45184;-73
2023/01/12 11:27:53;;;;;;;4.40;2.42;;;16.80;56.20;;;;;;5089788;28;45295;-73
2023/01/12 11:30:23;;;;;;;2.88;2.17;;;16.80;56.10;;;;;;5089031;28;45335;-74
2023/01/12 11:32:53;;;;;;;4.43;2.38;;;16.80;56.10;;;;;;5089201;28;45336;-74
2023/01/12 11:35:27;;;;;;;2.63;1.88;;;16.80;55.90;;;;;;5089578;28;45338;-74
2023/01/12 11:37:54;;;;;;;4.38;2.38;;;16.80;55.90;;;;;;5089862;28;45295;-74
2023/01/12 11:40:29;;;;;;;3.63;2.60;;;16.90;56.00;;;;;;5089715;27;45325;-74
2023/01/12 11:45:43;;;;;;;5.35;2.70;;;16.90;55.90;;;;;;5089444;28;45387;-74
2023/01/12 11:48:17;;;;;;;5.15;2.25;;;16.90;55.90;;;;;;5089424;28;45222;-74
2023/01/12 11:50:44;;;;;;;4.00;2.22;;;16.90;55.80;;;;;;5089984;28;45226;-74
2023/01/12 11:53:12;;;;;;;3.78;2.50;;;16.90;55.80;;;;;;5089105;28;46564;-74
2023/01/12 11:55:49;;;;;;;3.30;2.33;;;16.90;55.80;;;;;;5088767;27;45262;-74
2023/01/12 11:58:19;;;;;;;3.10;2.20;;;16.90;55.80;;;;;;5089299;28;45162;-74
2023/01/12 12:00:58;;;;;;;4.78;2.70;;;16.90;55.80;;;;;;5089427;28;45195;-74
2023/01/12 12:03:53;;;;;;;5.70;2.35;;;16.90;55.80;;;;;;5089066;28;46625;-74
2023/01/12 12:06:28;;;;;;;4.65;2.72;;;16.90;55.80;;;;;;5088968;27;45437;-74
2023/01/12 12:08:59;;;;;;;4.90;3.08;;;16.90;55.90;;;;;;5088767;28;45247;-74
2023/01/12 12:11:31;;;;;;;2.95;2.22;;;16.90;55.80;;;;;;5089099;28;45621;-74
2023/01/12 12:14:02;;;;;;;5.15;2.67;;;16.90;55.80;;;;;;5088749;28;46294;-74
2023/01/12 12:16:31;;;;;;;4.38;2.72;;;16.90;55.80;;;;;;5088883;28;45354;-74
2023/01/12 12:19:09;;;;;;;3.28;2.58;;;16.90;55.90;;;;;;5088849;28;45172;-74
2023/01/12 12:21:47;;;;;;;3.90;2.70;;;16.90;55.80;;;;;;5089041;28;45396;-74
2023/01/12 12:24:20;;;;;;;4.35;2.83;;;16.90;55.90;;;;;;5088333;28;46617;-74
2023/01/12 12:26:52;;;;;;;4.07;2.60;;;16.90;55.90;;;;;;5088659;28;45353;-74
2023/01/12 12:29:26;;;;;;;4.95;2.63;;;16.90;55.80;;;;;;5088788;28;45108;-74
2023/01/12 12:32:01;;;;;;;3.55;2.53;;;16.90;55.90;;;;;;5089029;27;45225;-74
2023/01/12 12:34:42;;;;;;;4.20;2.50;;;16.90;56.50;;;;;;5088357;28;45225;-74
2023/01/12 12:37:12;;;;;;;4.63;2.40;;;16.90;55.90;;;;;;5088338;28;45311;-74
2023/01/12 12:39:55;;;;;;;3.33;2.35;;;16.90;55.80;;;;;;5088471;28;45161;-74
2023/01/12 12:45:24;;;;;;;3.47;2.35;;;16.90;55.80;;;;;;5085680;28;45203;-74
2023/01/12 12:48:10;;;;;;;3.30;2.22;;;17.00;55.80;;;;;;5088135;28;45356;-73
2023/01/12 12:50:40;;;;;;;2.88;2.28;;;17.00;55.70;;;;;;5088319;28;45285;-76
2023/01/12 12:53:14;;;;;;;5.25;2.80;;;17.00;55.70;;;;;;5088524;28;45295;-74
2023/01/12 12:55:41;;;;;;;3.40;2.45;;;17.00;55.60;;;;;;5087993;28;45564;-75
2023/01/12 12:58:37;;;;;;;3.58;2.40;;;17.00;55.70;;;;;;5088273;27;45369;-73
2023/01/12 13:01:43;;;;;;;3.13;2.10;;;17.00;55.70;;;;;;5088212;27;45306;-75
2023/01/12 13:04:11;;;;;;;3.78;2.30;;;17.00;55.70;;;;;;5088330;28;45504;-75
2023/01/12 13:06:40;;;;;;;5.25;2.47;;;17.00;55.60;;;;;;5087480;28;48571;-75
2023/01/12 13:09:39;;;;;;;2.95;2.40;;;17.00;55.60;;;;;;5086705;28;45193;-75
2023/01/12 13:12:18;;;;;;;2.63;2.00;;;17.00;55.60;;;;;;5088421;27;45303;-72
2023/01/12 13:15:10;;;;;;;2.42;2.08;;;17.00;55.60;;;;;;5088308;28;45396;-76
2023/01/12 13:17:41;;;;;;;3.00;2.25;;;17.00;55.60;;;;;;5087749;27;45231;-74
2023/01/12 13:20:24;;;;;;;3.05;2.53;;;17.00;55.60;;;;;;5087731;28;45349;-75
2023/01/12 13:22:51;;;;;;;3.38;2.40;;;17.00;55.60;;;;;;5081797;27;45180;-76
2023/01/12 13:25:54;;;;;;;4.40;2.88;;;17.00;56.00;;;;;;5091256;27;45237;-76
2023/01/12 13:28:21;;;;;;;4.60;2.17;;;17.00;55.60;;;;;;5099860;27;46198;-75
2023/01/12 13:30:52;;;;;;;3.38;2.35;;;17.00;55.80;;;;;;5087969;27;45254;-76
2023/01/12 13:33:24;;;;;;;5.20;2.10;;;17.00;55.70;;;;;;5086528;27;45184;-75
2023/01/12 13:36:10;;;;;;;9.50;2.30;;;17.00;55.80;;;;;;5084922;27;45624;-73